Time;durP1;ratioP1;P1;durP2;ratioP2;P2;SDS_P1;SDS_P2;PMS_P1;PMS_P2;Temp;Humidity;BMP_temperature;BMP_pressure;BME280_temperature;BME280_humidity;BME280_pressure;Samples;Min_cycle;Max_cycle;Signal;HPM_P1;HPM_P2
2022/01/29 00:01:01;;;;;;;11.35;8.02;;;;;;;;;;5019449;28;20025;-60
2022/01/29 00:03:27;;;;;;;11.73;8.02;;;;;;;;;;5023900;28;20038;-60
2022/01/29 00:05:53;;;;;;;11.55;8.35;;;;;;;;;;5024559;28;20029;-60
2022/01/29 00:08:19;;;;;;;9.75;8.23;;;;;;;;;;5024670;28;20130;-60
2022/01/29 00:10:48;;;;;;;15.98;8.73;;;;;;;;;;5014461;28;20121;-60
2022/01/29 00:13:14;;;;;;;10.23;7.40;;;;;;;;;;5019532;28;20163;-60
2022/01/29 00:15:39;;;;;;;11.13;8.02;;;;;;;;;;5025382;28;20121;-60
2022/01/29 00:18:06;;;;;;;11.27;8.25;;;;;;;;;;5017780;28;20034;-60
2022/01/29 00:20:33;;;;;;;12.23;8.90;;;;;;;;;;5052920;28;20540;-60
2022/01/29 00:22:58;;;;;;;10.88;8.30;;;;;;;;;;5019636;28;20042;-60
2022/01/29 00:25:24;;;;;;;15.43;8.85;;;;;;;;;;5024827;28;20360;-60
2022/01/29 00:27:53;;;;;;;12.88;9.18;;;;;;;;;;5025140;28;20033;-59
2022/01/29 00:30:19;;;;;;;14.57;9.15;;;;;;;;;;5021161;28;20060;-60
2022/01/29 00:32:45;;;;;;;12.60;8.27;;;;;;;;;;5015644;28;20034;-60
2022/01/29 00:35:11;;;;;;;13.10;8.77;;;;;;;;;;5022109;28;20520;-60
2022/01/29 00:37:37;;;;;;;12.13;8.07;;;;;;;;;;5019436;28;20465;-60
2022/01/29 00:40:04;;;;;;;11.32;8.50;;;;;;;;;;5017765;28;20136;-60
2022/01/29 00:42:30;;;;;;;13.98;8.25;;;;;;;;;;5024224;28;20473;-60
2022/01/29 00:44:56;;;;;;;11.95;8.32;;;;;;;;;;5025281;28;20029;-60
2022/01/29 00:47:21;;;;;;;12.52;8.35;;;;;;;;;;5025127;28;20048;-60
2022/01/29 00:49:47;;;;;;;13.35;8.82;;;;;;;;;;5021403;28;20108;-60
2022/01/29 00:52:13;;;;;;;13.43;8.02;;;;;;;;;;5016824;28;20064;-60
2022/01/29 00:54:39;;;;;;;13.90;8.55;;;;;;;;;;5023508;28;20036;-60
2022/01/29 00:57:05;;;;;;;12.27;8.57;;;;;;;;;;5022711;28;20018;-60
2022/01/29 00:59:32;;;;;;;14.27;8.32;;;;;;;;;;5018953;28;20115;-59
2022/01/29 01:01:58;;;;;;;13.25;8.93;;;;;;;;;;5023266;28;20064;-60
2022/01/29 01:04:24;;;;;;;12.88;8.70;;;;;;;;;;5022051;28;20037;-60
2022/01/29 01:06:49;;;;;;;11.13;8.55;;;;;;;;;;5020050;28;20079;-60
2022/01/29 01:09:15;;;;;;;10.77;8.07;;;;;;;;;;5025277;28;20037;-59
2022/01/29 01:11:41;;;;;;;10.80;7.88;;;;;;;;;;5021336;28;20069;-60
2022/01/29 01:14:07;;;;;;;10.48;7.85;;;;;;;;;;5020136;28;20033;-60
2022/01/29 01:16:33;;;;;;;12.02;8.00;;;;;;;;;;5022107;28;20036;-60
2022/01/29 01:19:00;;;;;;;12.95;8.43;;;;;;;;;;5018339;28;20030;-59
2022/01/29 01:21:26;;;;;;;12.15;7.75;;;;;;;;;;5023622;28;20042;-59
2022/01/29 01:23:52;;;;;;;11.82;8.38;;;;;;;;;;5019571;28;20060;-60
2022/01/29 01:26:18;;;;;;;11.40;8.10;;;;;;;;;;5016397;28;20394;-60
2022/01/29 01:28:44;;;;;;;11.05;7.97;;;;;;;;;;5014083;28;20044;-59
2022/01/29 01:31:10;;;;;;;11.07;8.07;;;;;;;;;;5018109;28;20065;-59
2022/01/29 01:33:36;;;;;;;9.27;8.00;;;;;;;;;;5020829;28;20042;-60
2022/01/29 01:36:05;;;;;;;11.48;7.78;;;;;;;;;;5020400;28;20025;-60
2022/01/29 01:38:59;;;;;;;11.55;8.82;;;;;;;;;;5016342;28;20041;-60
2022/01/29 01:41:22;;;;;;;13.35;8.20;;;;;;;;;;5022529;28;20912;-59
2022/01/29 01:43:49;;;;;;;10.80;8.32;;;;;;;;;;5016485;28;20033;-60
2022/01/29 01:46:15;;;;;;;12.32;7.93;;;;;;;;;;5023010;28;20037;-60
2022/01/29 01:48:40;;;;;;;10.85;7.90;;;;;;;;;;5022795;28;20674;-60
2022/01/29 01:51:07;;;;;;;11.30;8.23;;;;;;;;;;5020402;28;20128;-60
2022/01/29 01:53:33;;;;;;;12.18;8.48;;;;;;;;;;5019569;28;20037;-60
2022/01/29 01:55:59;;;;;;;10.90;8.57;;;;;;;;;;5018844;28;20323;-59
2022/01/29 01:58:24;;;;;;;14.63;8.93;;;;;;;;;;5020443;28;20037;-60
2022/01/29 02:00:51;;;;;;;12.45;8.77;;;;;;;;;;5021731;28;20470;-60
2022/01/29 02:03:17;;;;;;;14.35;9.02;;;;;;;;;;5018044;28;20080;-59
2022/01/29 02:05:44;;;;;;;13.00;9.07;;;;;;;;;;5019683;28;20065;-59
2022/01/29 02:08:11;;;;;;;12.43;9.20;;;;;;;;;;5023891;28;20036;-59
2022/01/29 02:10:38;;;;;;;14.07;8.80;;;;;;;;;;5019172;28;20033;-60
2022/01/29 02:13:05;;;;;;;15.30;8.32;;;;;;;;;;5021145;28;20084;-59
2022/01/29 02:15:31;;;;;;;13.82;8.25;;;;;;;;;;5022449;28;20479;-59
2022/01/29 02:17:58;;;;;;;11.90;8.20;;;;;;;;;;5020150;28;20482;-59
2022/01/29 02:20:26;;;;;;;12.75;8.23;;;;;;;;;;5019260;28;20112;-60
2022/01/29 02:22:51;;;;;;;9.77;7.53;;;;;;;;;;5009819;28;20040;-60
2022/01/29 02:25:33;;;;;;;10.38;7.63;;;;;;;;;;5017516;28;20034;-60
2022/01/29 02:28:02;;;;;;;10.35;7.53;;;;;;;;;;5014654;28;20205;-60
2022/01/29 02:30:30;;;;;;;11.30;8.15;;;;;;;;;;5020686;28;20054;-60
2022/01/29 02:32:57;;;;;;;21.23;7.72;;;;;;;;;;5023167;28;20462;-60
2022/01/29 02:35:24;;;;;;;11.30;8.10;;;;;;;;;;5017805;28;20034;-59
2022/01/29 02:37:51;;;;;;;11.25;7.88;;;;;;;;;;5020348;28;20034;-60
2022/01/29 02:40:19;;;;;;;9.93;7.75;;;;;;;;;;5020816;28;20088;-60
2022/01/29 02:42:45;;;;;;;10.48;8.07;;;;;;;;;;5023127;28;20064;-60
2022/01/29 02:45:11;;;;;;;11.15;7.38;;;;;;;;;;5024354;28;20044;-60
2022/01/29 02:47:37;;;;;;;10.18;8.07;;;;;;;;;;5018006;28;20026;-60
2022/01/29 02:50:03;;;;;;;11.85;8.38;;;;;;;;;;5018962;28;20024;-59
2022/01/29 02:52:29;;;;;;;11.43;7.53;;;;;;;;;;5014807;28;20041;-60
2022/01/29 02:54:54;;;;;;;8.68;7.05;;;;;;;;;;5025252;28;20036;-60
2022/01/29 02:57:20;;;;;;;10.95;8.10;;;;;;;;;;5026207;28;20037;-60
2022/01/29 02:59:46;;;;;;;10.07;7.70;;;;;;;;;;5034788;28;20029;-60
2022/01/29 03:02:12;;;;;;;8.63;7.50;;;;;;;;;;5019124;28;20026;-60
2022/01/29 03:04:37;;;;;;;9.60;7.50;;;;;;;;;;5017057;28;20029;-60
2022/01/29 03:07:03;;;;;;;9.93;7.75;;;;;;;;;;5029036;28;20033;-60
2022/01/29 03:09:29;;;;;;;11.25;8.20;;;;;;;;;;5026869;28;20381;-60
2022/01/29 03:11:56;;;;;;;10.45;8.07;;;;;;;;;;5024436;28;20076;-60
2022/01/29 03:14:22;;;;;;;11.18;7.03;;;;;;;;;;5023242;28;20425;-60
2022/01/29 03:16:47;;;;;;;9.27;7.78;;;;;;;;;;5023625;28;20041;-60
2022/01/29 03:19:13;;;;;;;12.55;7.38;;;;;;;;;;5022633;28;20478;-60
2022/01/29 03:21:39;;;;;;;10.20;7.63;;;;;;;;;;5023480;28;20029;-60
2022/01/29 03:24:05;;;;;;;10.40;7.95;;;;;;;;;;5023522;28;20068;-60
2022/01/29 03:26:31;;;;;;;11.52;7.80;;;;;;;;;;5022330;28;20056;-60
2022/01/29 03:28:57;;;;;;;11.77;7.55;;;;;;;;;;5021314;28;20095;-60
2022/01/29 03:31:26;;;;;;;9.45;7.57;;;;;;;;;;5024296;28;20116;-60
2022/01/29 03:33:52;;;;;;;9.85;7.63;;;;;;;;;;5024417;28;20121;-59
2022/01/29 03:36:19;;;;;;;12.40;8.30;;;;;;;;;;5026278;28;20433;-59
2022/01/29 03:38:44;;;;;;;10.18;7.40;;;;;;;;;;5024094;28;20121;-59
2022/01/29 03:41:13;;;;;;;11.80;8.10;;;;;;;;;;5023637;28;20076;-60
2022/01/29 03:43:46;;;;;;;10.68;8.07;;;;;;;;;;5024008;28;20041;-60
2022/01/29 03:46:13;;;;;;;10.77;7.70;;;;;;;;;;5019006;28;20482;-59
2022/01/29 03:48:39;;;;;;;12.57;7.97;;;;;;;;;;5023611;28;20164;-60
2022/01/29 03:51:05;;;;;;;11.63;7.68;;;;;;;;;;5022559;28;20386;-60
2022/01/29 03:53:31;;;;;;;10.60;8.05;;;;;;;;;;5023453;28;20025;-60
2022/01/29 03:55:57;;;;;;;12.07;7.80;;;;;;;;;;5022970;28;20053;-60
2022/01/29 03:58:23;;;;;;;12.48;8.15;;;;;;;;;;5021892;28;20654;-60
2022/01/29 04:00:49;;;;;;;12.38;7.88;;;;;;;;;;5028293;28;20048;-59
2022/01/29 04:03:15;;;;;;;11.27;8.27;;;;;;;;;;5023753;28;20091;-60
2022/01/29 04:05:40;;;;;;;11.00;7.57;;;;;;;;;;5025587;28;20418;-59
2022/01/29 04:08:14;;;;;;;12.73;8.27;;;;;;;;;;5020129;28;20041;-60
2022/01/29 04:10:39;;;;;;;11.02;7.63;;;;;;;;;;5027311;28;20430;-60
2022/01/29 04:13:08;;;;;;;11.77;7.40;;;;;;;;;;5020533;28;20403;-60
2022/01/29 04:15:35;;;;;;;14.68;8.10;;;;;;;;;;5022050;28;20034;-60
2022/01/29 04:18:01;;;;;;;11.05;7.55;;;;;;;;;;5018707;28;20034;-60
2022/01/29 04:20:27;;;;;;;11.52;7.13;;;;;;;;;;5022800;28;20025;-60
2022/01/29 04:22:52;;;;;;;11.30;8.32;;;;;;;;;;5022874;28;20029;-60
2022/01/29 04:25:18;;;;;;;10.85;8.02;;;;;;;;;;5024310;28;20427;-60
2022/01/29 04:27:46;;;;;;;16.33;7.07;;;;;;;;;;5027980;28;20069;-60
2022/01/29 04:30:30;;;;;;;10.13;7.50;;;;;;;;;;5022390;28;20153;-60
2022/01/29 04:33:43;;;;;;;9.95;7.18;;;;;;;;;;5024208;28;20585;-60
2022/01/29 04:35:44;;;;;;;10.88;7.25;;;;;;;;;;5022332;28;20070;-60
2022/01/29 04:38:11;;;;;;;9.57;7.38;;;;;;;;;;5027006;28;20040;-60
2022/01/29 04:40:37;;;;;;;10.18;7.90;;;;;;;;;;5022451;28;20041;-60
2022/01/29 04:43:06;;;;;;;11.50;7.38;;;;;;;;;;5022093;28;20033;-60
2022/01/29 04:45:32;;;;;;;11.95;7.22;;;;;;;;;;5023097;28;20029;-60
2022/01/29 04:47:58;;;;;;;10.82;7.40;;;;;;;;;;5021686;28;20052;-60
2022/01/29 04:50:25;;;;;;;13.98;7.25;;;;;;;;;;5018459;28;20040;-60
2022/01/29 04:52:51;;;;;;;10.45;6.90;;;;;;;;;;5022630;28;20061;-60
2022/01/29 04:55:17;;;;;;;7.85;6.75;;;;;;;;;;5022408;28;20037;-60
2022/01/29 04:57:43;;;;;;;12.43;7.63;;;;;;;;;;5019469;28;20052;-60
2022/01/29 05:00:11;;;;;;;12.73;7.38;;;;;;;;;;5022667;28;20029;-60
2022/01/29 05:02:38;;;;;;;10.93;7.35;;;;;;;;;;5022486;28;20041;-60
2022/01/29 05:05:05;;;;;;;10.70;7.55;;;;;;;;;;5018381;28;20035;-60
2022/01/29 05:07:31;;;;;;;9.30;7.15;;;;;;;;;;5027452;28;20400;-59
2022/01/29 05:09:57;;;;;;;9.82;7.13;;;;;;;;;;5025277;28;20037;-60
2022/01/29 05:12:28;;;;;;;8.85;7.32;;;;;;;;;;5025116;28;20090;-60
2022/01/29 05:28:04;;;;;;;11.25;8.32;;;;;;;;;;5026290;28;20046;-60
2022/01/29 05:30:30;;;;;;;14.18;8.00;;;;;;;;;;5024856;28;20050;-60
2022/01/29 05:32:56;;;;;;;12.60;8.25;;;;;;;;;;5019811;28;20048;-60
2022/01/29 05:35:22;;;;;;;11.02;8.05;;;;;;;;;;5020169;28;20042;-60
2022/01/29 05:37:50;;;;;;;11.82;7.90;;;;;;;;;;5018329;28;20041;-59
2022/01/29 05:40:17;;;;;;;10.75;7.47;;;;;;;;;;5039158;28;20033;-60
2022/01/29 05:42:42;;;;;;;11.95;8.48;;;;;;;;;;5024732;28;20037;-60
2022/01/29 05:45:09;;;;;;;10.52;8.00;;;;;;;;;;5020964;28;20591;-60
2022/01/29 05:47:35;;;;;;;11.20;7.78;;;;;;;;;;5022137;28;20620;-60
2022/01/29 05:50:02;;;;;;;10.65;8.25;;;;;;;;;;5019363;28;20040;-60
2022/01/29 05:52:28;;;;;;;14.32;8.30;;;;;;;;;;5017547;28;20033;-60
2022/01/29 05:54:54;;;;;;;10.50;7.47;;;;;;;;;;5020008;28;20092;-60
2022/01/29 05:57:19;;;;;;;9.38;6.72;;;;;;;;;;5020509;28;20037;-60
2022/01/29 05:59:45;;;;;;;9.88;8.02;;;;;;;;;;5020830;28;20029;-60
2022/01/29 06:02:11;;;;;;;17.55;10.52;;;;;;;;;;5023279;28;20032;-60
2022/01/29 06:04:36;;;;;;;12.75;8.43;;;;;;;;;;5020274;28;20052;-60
2022/01/29 06:07:02;;;;;;;11.27;8.15;;;;;;;;;;5022116;28;20091;-60
2022/01/29 06:09:28;;;;;;;10.82;8.25;;;;;;;;;;5019424;28;20079;-60
2022/01/29 06:11:54;;;;;;;10.75;8.60;;;;;;;;;;5019717;28;20045;-60
2022/01/29 06:14:20;;;;;;;12.88;8.52;;;;;;;;;;5017642;28;20029;-60
2022/01/29 06:16:46;;;;;;;11.77;8.15;;;;;;;;;;5016607;28;20033;-60
2022/01/29 06:19:11;;;;;;;13.70;8.07;;;;;;;;;;5012332;28;20116;-60
2022/01/29 06:21:37;;;;;;;12.15;8.57;;;;;;;;;;5021184;28;20612;-60
2022/01/29 06:24:03;;;;;;;11.15;7.78;;;;;;;;;;5023375;28;20025;-60
2022/01/29 06:26:29;;;;;;;10.63;8.10;;;;;;;;;;5023209;28;20037;-60
2022/01/29 06:28:54;;;;;;;10.90;7.22;;;;;;;;;;5028228;28;20112;-60
2022/01/29 06:31:20;;;;;;;11.50;7.90;;;;;;;;;;5026235;28;20044;-60
2022/01/29 06:33:46;;;;;;;12.95;8.38;;;;;;;;;;5031054;28;20029;-60
2022/01/29 06:36:12;;;;;;;11.63;8.55;;;;;;;;;;5027196;28;20033;-60
2022/01/29 06:38:37;;;;;;;12.77;8.63;;;;;;;;;;5028200;28;20037;-60
2022/01/29 06:41:03;;;;;;;12.93;8.25;;;;;;;;;;5020139;28;20033;-60
2022/01/29 06:43:29;;;;;;;15.00;8.70;;;;;;;;;;5027566;28;20026;-60
2022/01/29 06:45:56;;;;;;;14.55;8.82;;;;;;;;;;5023779;28;20029;-59
2022/01/29 06:48:22;;;;;;;10.43;8.23;;;;;;;;;;5023979;28;20491;-60
2022/01/29 06:50:47;;;;;;;13.18;8.68;;;;;;;;;;5024835;28;20022;-60
2022/01/29 06:53:13;;;;;;;11.18;8.23;;;;;;;;;;5023234;28;20360;-60
2022/01/29 06:55:39;;;;;;;13.90;8.73;;;;;;;;;;5024521;28;20029;-60
2022/01/29 06:58:05;;;;;;;11.77;8.63;;;;;;;;;;5030512;28;20084;-60
2022/01/29 07:00:31;;;;;;;11.57;8.18;;;;;;;;;;5027720;28;20489;-60
2022/01/29 07:02:57;;;;;;;10.93;8.55;;;;;;;;;;5027283;28;20033;-59
2022/01/29 07:05:22;;;;;;;10.73;8.20;;;;;;;;;;5026660;28;20047;-60
2022/01/29 07:07:48;;;;;;;13.23;8.85;;;;;;;;;;5021419;28;20422;-60
2022/01/29 07:10:14;;;;;;;13.80;8.50;;;;;;;;;;5025709;28;20091;-60
2022/01/29 07:12:40;;;;;;;12.40;8.88;;;;;;;;;;5021736;28;20109;-60
2022/01/29 07:15:07;;;;;;;15.27;8.55;;;;;;;;;;5020169;28;20157;-60
2022/01/29 07:17:33;;;;;;;15.07;9.07;;;;;;;;;;5020752;28;20079;-60
2022/01/29 07:19:59;;;;;;;13.27;8.45;;;;;;;;;;5020646;28;20033;-59
2022/01/29 07:22:25;;;;;;;13.60;9.07;;;;;;;;;;5023948;28;20033;-59
2022/01/29 07:24:51;;;;;;;13.48;8.95;;;;;;;;;;5025240;28;20540;-60
2022/01/29 07:27:17;;;;;;;16.58;9.57;;;;;;;;;;5027588;28;20049;-59
2022/01/29 07:29:43;;;;;;;12.75;8.32;;;;;;;;;;5021851;28;20041;-60
2022/01/29 07:32:10;;;;;;;14.45;9.10;;;;;;;;;;5029074;28;20022;-60
2022/01/29 07:34:36;;;;;;;14.27;9.40;;;;;;;;;;5021476;28;20026;-59
2022/01/29 07:37:02;;;;;;;16.60;10.10;;;;;;;;;;5023874;28;20045;-60
2022/01/29 07:39:28;;;;;;;16.83;9.98;;;;;;;;;;5022905;28;20092;-60
2022/01/29 07:41:55;;;;;;;22.80;9.85;;;;;;;;;;5023508;28;20083;-60
2022/01/29 07:44:21;;;;;;;14.75;9.88;;;;;;;;;;5024186;28;20033;-60
2022/01/29 07:46:47;;;;;;;17.88;10.98;;;;;;;;;;5027948;28;20029;-59
2022/01/29 07:49:13;;;;;;;18.55;10.25;;;;;;;;;;5021805;28;20037;-60
2022/01/29 07:51:40;;;;;;;17.52;11.52;;;;;;;;;;5022551;28;20033;-60
2022/01/29 07:54:06;;;;;;;27.33;16.67;;;;;;;;;;5020121;28;20034;-59
2022/01/29 07:56:32;;;;;;;18.67;12.48;;;;;;;;;;5020527;28;23349;-60
2022/01/29 07:58:58;;;;;;;18.10;12.10;;;;;;;;;;5022622;28;20029;-60
2022/01/29 08:01:24;;;;;;;20.25;13.40;;;;;;;;;;5022922;28;20037;-59
2022/01/29 08:03:51;;;;;;;19.38;10.57;;;;;;;;;;5023362;28;20041;-60
2022/01/29 08:06:18;;;;;;;16.92;9.77;;;;;;;;;;5023706;28;20030;-60
2022/01/29 08:08:44;;;;;;;13.82;9.15;;;;;;;;;;5018744;28;20041;-60
2022/01/29 08:11:12;;;;;;;16.73;10.02;;;;;;;;;;5024420;28;20033;-59
2022/01/29 08:13:39;;;;;;;14.70;10.32;;;;;;;;;;5019528;28;20041;-59
2022/01/29 08:16:05;;;;;;;15.45;11.02;;;;;;;;;;5023753;28;20439;-58
2022/01/29 08:18:31;;;;;;;16.10;11.57;;;;;;;;;;5023335;28;20021;-59
2022/01/29 08:20:58;;;;;;;14.32;10.60;;;;;;;;;;5025459;28;20443;-59
2022/01/29 08:23:24;;;;;;;23.52;11.32;;;;;;;;;;5022667;28;20073;-60
2022/01/29 08:25:49;;;;;;;18.27;12.10;;;;;;;;;;5018966;28;20037;-59
2022/01/29 08:28:16;;;;;;;20.08;12.05;;;;;;;;;;5022465;28;20052;-59
2022/01/29 08:30:43;;;;;;;26.40;15.23;;;;;;;;;;5022556;28;20046;-60
2022/01/29 08:33:11;;;;;;;19.67;12.38;;;;;;;;;;5024641;28;20441;-59
2022/01/29 08:35:37;;;;;;;23.95;11.35;;;;;;;;;;5021825;28;20026;-60
2022/01/29 08:38:02;;;;;;;22.27;11.15;;;;;;;;;;5019618;28;20098;-60
2022/01/29 08:40:28;;;;;;;20.48;12.27;;;;;;;;;;5022437;28;20033;-60
2022/01/29 08:42:54;;;;;;;22.77;11.85;;;;;;;;;;5021273;28;20038;-60
2022/01/29 08:45:20;;;;;;;24.35;12.30;;;;;;;;;;5026082;28;20082;-59
2022/01/29 08:47:46;;;;;;;17.35;11.60;;;;;;;;;;5023294;28;20378;-60
2022/01/29 08:50:12;;;;;;;19.50;11.65;;;;;;;;;;5023064;28;20386;-59
2022/01/29 08:52:39;;;;;;;17.02;11.30;;;;;;;;;;5022124;28;20025;-59
2022/01/29 08:55:06;;;;;;;19.13;10.52;;;;;;;;;;5029037;28;20087;-59
2022/01/29 08:57:32;;;;;;;15.20;10.35;;;;;;;;;;5022405;28;20041;-60
2022/01/29 08:59:58;;;;;;;15.00;10.95;;;;;;;;;;5025986;28;20026;-59
2022/01/29 09:02:24;;;;;;;19.33;12.85;;;;;;;;;;5023076;28;20088;-60
2022/01/29 09:04:52;;;;;;;19.02;11.35;;;;;;;;;;5025865;28;20155;-59
2022/01/29 09:07:18;;;;;;;15.55;10.48;;;;;;;;;;5021677;28;20490;-59
2022/01/29 09:09:45;;;;;;;16.55;10.93;;;;;;;;;;5026106;28;20040;-59
2022/01/29 09:12:12;;;;;;;17.15;10.70;;;;;;;;;;5020150;28;20033;-59
2022/01/29 09:14:38;;;;;;;19.55;12.02;;;;;;;;;;5017750;28;20083;-59
2022/01/29 09:17:04;;;;;;;18.95;11.57;;;;;;;;;;5023774;28;20037;-59
2022/01/29 09:19:30;;;;;;;20.42;12.77;;;;;;;;;;5015566;28;20036;-59
2022/01/29 09:21:56;;;;;;;19.65;12.05;;;;;;;;;;5026723;28;20029;-59
2022/01/29 09:24:22;;;;;;;21.83;12.45;;;;;;;;;;5022325;28;20359;-59
2022/01/29 09:26:48;;;;;;;17.65;12.02;;;;;;;;;;5020627;28;20478;-59
2022/01/29 09:29:14;;;;;;;19.27;12.07;;;;;;;;;;5017993;28;20057;-59
2022/01/29 09:31:40;;;;;;;19.27;11.45;;;;;;;;;;5024229;28;20030;-59
2022/01/29 09:34:05;;;;;;;18.05;11.80;;;;;;;;;;5024075;28;20022;-59
2022/01/29 09:36:31;;;;;;;20.27;11.60;;;;;;;;;;5025875;28;20448;-59
2022/01/29 09:38:57;;;;;;;20.00;11.40;;;;;;;;;;5024110;28;20029;-59
2022/01/29 09:41:24;;;;;;;24.90;11.45;;;;;;;;;;5019135;28;20029;-58
2022/01/29 09:43:54;;;;;;;20.50;11.68;;;;;;;;;;5019882;28;20036;-59
2022/01/29 09:46:21;;;;;;;20.15;11.68;;;;;;;;;;5017145;28;20037;-59
2022/01/29 09:48:47;;;;;;;16.60;11.00;;;;;;;;;;5020352;28;20128;-59
2022/01/29 09:51:13;;;;;;;17.35;10.43;;;;;;;;;;5022794;28;20104;-59
2022/01/29 09:53:43;;;;;;;16.35;11.43;;;;;;;;;;5022948;28;20462;-54
2022/01/29 09:56:13;;;;;;;16.30;11.10;;;;;;;;;;5022236;28;20057;-59
2022/01/29 09:58:40;;;;;;;19.30;12.40;;;;;;;;;;5025193;28;20471;-59
2022/01/29 10:01:06;;;;;;;22.98;11.23;;;;;;;;;;5020391;28;20030;-60
2022/01/29 10:03:32;;;;;;;18.73;12.02;;;;;;;;;;5024213;28;20033;-59
2022/01/29 10:05:58;;;;;;;17.17;12.68;;;;;;;;;;5021360;28;20041;-60
2022/01/29 10:08:24;;;;;;;15.63;12.07;;;;;;;;;;5023781;28;20495;-59
2022/01/29 10:10:57;;;;;;;18.77;12.85;;;;;;;;;;5022524;28;20091;-59
2022/01/29 10:13:27;;;;;;;16.92;13.25;;;;;;;;;;5022546;28;20129;-59
2022/01/29 10:16:23;;;;;;;24.00;13.30;;;;;;;;;;5025661;28;20068;-59
2022/01/29 10:19:02;;;;;;;23.23;13.40;;;;;;;;;;5022209;28;20029;-59
2022/01/29 10:21:41;;;;;;;20.08;14.73;;;;;;;;;;5021488;28;20048;-59
2022/01/29 10:24:21;;;;;;;24.20;15.27;;;;;;;;;;5025966;28;20117;-60
2022/01/29 10:26:49;;;;;;;19.67;14.13;;;;;;;;;;5022134;28;20037;-59
2022/01/29 10:29:23;;;;;;;25.02;15.45;;;;;;;;;;5021816;28;20060;-59
2022/01/29 10:31:52;;;;;;;21.92;14.70;;;;;;;;;;5026919;28;20057;-59
2022/01/29 10:34:28;;;;;;;23.08;15.80;;;;;;;;;;5028013;28;20118;-59
2022/01/29 10:37:16;;;;;;;30.23;16.65;;;;;;;;;;5028262;28;20029;-59
2022/01/29 10:39:55;;;;;;;26.83;16.48;;;;;;;;;;5028180;28;20386;-59
2022/01/29 10:42:23;;;;;;;24.88;15.02;;;;;;;;;;5024285;28;20120;-60
2022/01/29 10:44:52;;;;;;;22.92;15.23;;;;;;;;;;5024511;28;20032;-59
2022/01/29 10:47:18;;;;;;;25.10;15.32;;;;;;;;;;5025753;28;20041;-59
2022/01/29 10:49:58;;;;;;;23.75;16.77;;;;;;;;;;5018867;28;20030;-59
2022/01/29 10:52:29;;;;;;;41.55;20.33;;;;;;;;;;5020881;28;20029;-60
2022/01/29 10:54:59;;;;;;;20.98;15.80;;;;;;;;;;5027320;28;20033;-59
2022/01/29 10:57:33;;;;;;;28.60;16.55;;;;;;;;;;5025897;28;20059;-59
2022/01/29 10:59:59;;;;;;;37.60;16.88;;;;;;;;;;5026331;28;20512;-59
2022/01/29 11:02:29;;;;;;;26.40;18.00;;;;;;;;;;5025776;28;20060;-60
2022/01/29 11:04:55;;;;;;;27.45;16.88;;;;;;;;;;5021415;28;20079;-59
2022/01/29 11:07:27;;;;;;;26.65;16.00;;;;;;;;;;5025571;28;20034;-59
2022/01/29 11:09:53;;;;;;;26.42;15.88;;;;;;;;;;5024452;28;20041;-59
2022/01/29 11:12:24;;;;;;;21.50;15.38;;;;;;;;;;5024768;28;20034;-59
2022/01/29 11:14:53;;;;;;;32.00;18.55;;;;;;;;;;5023269;28;20382;-59
2022/01/29 11:17:19;;;;;;;27.60;16.63;;;;;;;;;;5025716;28;20072;-59
2022/01/29 11:19:46;;;;;;;25.98;15.30;;;;;;;;;;5018179;28;20040;-58
2022/01/29 11:22:12;;;;;;;25.77;16.05;;;;;;;;;;5025766;28;20674;-59
2022/01/29 11:24:42;;;;;;;26.48;17.25;;;;;;;;;;5016819;28;20522;-60
2022/01/29 11:27:43;;;;;;;24.80;16.65;;;;;;;;;;5023035;28;20095;-59
2022/01/29 11:30:09;;;;;;;26.05;15.88;;;;;;;;;;5005191;28;20129;-59
2022/01/29 11:32:42;;;;;;;21.38;15.32;;;;;;;;;;4999061;28;20113;-59
2022/01/29 11:35:25;;;;;;;24.90;14.45;;;;;;;;;;5000937;28;20475;-59
2022/01/29 11:37:57;;;;;;;23.63;13.80;;;;;;;;;;5000264;28;20137;-59
2022/01/29 11:40:39;;;;;;;25.17;15.35;;;;;;;;;;5001764;28;20046;-59
2022/01/29 11:43:13;;;;;;;29.80;17.05;;;;;;;;;;5003892;28;20065;-59
2022/01/29 11:45:42;;;;;;;20.33;14.57;;;;;;;;;;5000109;28;20034;-60
2022/01/29 11:50:53;;;;;;;22.38;14.43;;;;;;;;;;5002891;28;20042;-60
2022/01/29 11:53:20;;;;;;;20.10;13.32;;;;;;;;;;4995156;28;20045;-59
2022/01/29 11:55:49;;;;;;;20.15;12.70;;;;;;;;;;4998507;28;20038;-59
2022/01/29 11:58:17;;;;;;;18.83;12.10;;;;;;;;;;5000636;28;20034;-60
2022/01/29 12:00:57;;;;;;;16.48;12.02;;;;;;;;;;5005732;28;20108;-59
2022/01/29 12:03:35;;;;;;;17.90;13.32;;;;;;;;;;5001392;28;20044;-60
2022/01/29 12:08:57;;;;;;;14.95;11.18;;;;;;;;;;5006989;28;20042;-59
2022/01/29 12:11:25;;;;;;;15.13;10.70;;;;;;;;;;5005752;28;20157;-58
2022/01/29 12:14:13;;;;;;;18.85;11.30;;;;;;;;;;5000953;28;20038;-59
2022/01/29 12:16:50;;;;;;;17.20;11.65;;;;;;;;;;5007456;28;20041;-59
2022/01/29 12:19:34;;;;;;;15.27;11.02;;;;;;;;;;5001015;28;20034;-59
2022/01/29 12:22:00;;;;;;;15.23;10.25;;;;;;;;;;5000295;28;20069;-59
2022/01/29 12:24:26;;;;;;;15.23;11.18;;;;;;;;;;4998799;28;20034;-59
2022/01/29 12:26:54;;;;;;;18.42;11.93;;;;;;;;;;5001905;28;20466;-59
2022/01/29 12:29:21;;;;;;;18.52;11.93;;;;;;;;;;5008626;28;20085;-60
2022/01/29 12:31:57;;;;;;;18.65;12.38;;;;;;;;;;5022466;28;20041;-59
2022/01/29 12:34:24;;;;;;;18.98;11.60;;;;;;;;;;5020103;28;20045;-59
2022/01/29 12:36:51;;;;;;;18.52;11.65;;;;;;;;;;5020751;28;20512;-59
2022/01/29 12:39:24;;;;;;;19.67;11.80;;;;;;;;;;5021761;28;20036;-60
2022/01/29 12:44:43;;;;;;;14.57;10.73;;;;;;;;;;5022986;28;20497;-59
2022/01/29 12:47:32;;;;;;;16.60;12.23;;;;;;;;;;5021203;28;20022;-59
2022/01/29 12:49:58;;;;;;;18.77;11.02;;;;;;;;;;5018812;28;20042;-60
2022/01/29 12:52:25;;;;;;;16.58;11.35;;;;;;;;;;5019674;28;20083;-60
2022/01/29 12:54:52;;;;;;;16.83;12.73;;;;;;;;;;5023911;28;20061;-59
2022/01/29 12:57:18;;;;;;;13.57;10.73;;;;;;;;;;5023347;28;20945;-59
2022/01/29 12:59:44;;;;;;;14.32;10.30;;;;;;;;;;5024907;28;20026;-59
2022/01/29 13:02:10;;;;;;;15.95;10.18;;;;;;;;;;5019387;28;20038;-59
2022/01/29 13:04:37;;;;;;;12.70;9.30;;;;;;;;;;5022505;28;20029;-60
2022/01/29 13:07:05;;;;;;;14.10;8.45;;;;;;;;;;5026711;28;20123;-59
2022/01/29 13:09:36;;;;;;;12.82;8.35;;;;;;;;;;5019360;28;20026;-59
2022/01/29 13:12:06;;;;;;;10.93;7.60;;;;;;;;;;5023186;28;20547;-59
2022/01/29 13:14:33;;;;;;;12.15;8.52;;;;;;;;;;5024203;28;20113;-59
2022/01/29 13:17:06;;;;;;;10.25;8.27;;;;;;;;;;5026492;28;20030;-60
2022/01/29 13:19:32;;;;;;;8.88;7.35;;;;;;;;;;5022365;28;20136;-59
2022/01/29 13:22:01;;;;;;;10.95;7.40;;;;;;;;;;5019093;28;20037;-59
2022/01/29 13:24:27;;;;;;;11.15;7.93;;;;;;;;;;5022678;28;20044;-59
2022/01/29 13:27:07;;;;;;;10.85;7.45;;;;;;;;;;5019128;28;20096;-60
2022/01/29 13:29:34;;;;;;;11.82;7.82;;;;;;;;;;5019496;28;20556;-59
2022/01/29 13:32:01;;;;;;;10.13;7.65;;;;;;;;;;5016917;28;20025;-59
2022/01/29 13:34:29;;;;;;;10.60;7.70;;;;;;;;;;5022675;28;20037;-59
2022/01/29 13:36:55;;;;;;;12.05;7.03;;;;;;;;;;5021560;28;20497;-59
2022/01/29 13:39:22;;;;;;;10.48;7.70;;;;;;;;;;5019781;28;20033;-59
2022/01/29 13:42:06;;;;;;;10.68;7.72;;;;;;;;;;5016660;28;20439;-59
2022/01/29 13:44:31;;;;;;;10.82;7.47;;;;;;;;;;5021437;28;20071;-59
2022/01/29 13:47:08;;;;;;;11.55;6.95;;;;;;;;;;5020289;28;20065;-60
2022/01/29 13:49:35;;;;;;;10.18;8.15;;;;;;;;;;5018264;28;20021;-60
2022/01/29 13:52:15;;;;;;;15.95;8.45;;;;;;;;;;5022466;28;20095;-59
2022/01/29 13:54:40;;;;;;;8.65;6.82;;;;;;;;;;5023038;28;20034;-59
2022/01/29 13:57:07;;;;;;;7.82;6.60;;;;;;;;;;5022798;28;20033;-59
2022/01/29 13:59:35;;;;;;;10.13;6.75;;;;;;;;;;5022928;28;20060;-59
2022/01/29 14:02:04;;;;;;;8.60;6.75;;;;;;;;;;5020964;28;20026;-59
2022/01/29 14:04:38;;;;;;;9.70;6.82;;;;;;;;;;5017065;28;20033;-59
2022/01/29 14:07:14;;;;;;;9.27;6.18;;;;;;;;;;5019199;28;20035;-59
2022/01/29 14:09:59;;;;;;;9.48;6.95;;;;;;;;;;5023523;28;20405;-59
2022/01/29 14:12:29;;;;;;;8.13;6.38;;;;;;;;;;5019900;28;20034;-59
2022/01/29 14:15:09;;;;;;;7.88;6.13;;;;;;;;;;5023331;28;20030;-59
2022/01/29 14:17:37;;;;;;;14.35;7.13;;;;;;;;;;5020957;28;20045;-59
2022/01/29 14:20:09;;;;;;;7.95;6.47;;;;;;;;;;5021840;28;20021;-59
2022/01/29 14:22:36;;;;;;;7.78;5.80;;;;;;;;;;5021137;28;20059;-59
2022/01/29 14:25:04;;;;;;;8.93;6.63;;;;;;;;;;5017067;28;20131;-59
2022/01/29 14:27:31;;;;;;;9.52;6.22;;;;;;;;;;5022412;28;20475;-59
2022/01/29 14:29:58;;;;;;;7.68;6.15;;;;;;;;;;5021290;28;20623;-59
2022/01/29 14:32:25;;;;;;;10.75;6.88;;;;;;;;;;5019589;28;20033;-59
2022/01/29 14:34:51;;;;;;;10.30;7.00;;;;;;;;;;5020582;28;20048;-59
2022/01/29 14:37:18;;;;;;;7.40;6.68;;;;;;;;;;5019829;28;20041;-59
2022/01/29 14:39:44;;;;;;;9.07;7.80;;;;;;;;;;5020935;28;20037;-60
2022/01/29 14:42:10;;;;;;;12.13;8.63;;;;;;;;;;5021989;28;20025;-59
2022/01/29 14:44:39;;;;;;;8.48;6.20;;;;;;;;;;5021743;28;20029;-60
2022/01/29 14:47:06;;;;;;;9.38;6.43;;;;;;;;;;5021754;28;20029;-59
2022/01/29 14:49:33;;;;;;;9.20;5.95;;;;;;;;;;5024954;28;20078;-60
2022/01/29 14:52:03;;;;;;;9.02;6.32;;;;;;;;;;5025338;28;20026;-59